Time,TemperatureF,DewpointF,PressureIn,WindDirection,WindDirectionDegrees,WindSpeedMPH,WindSpeedGustMPH,Humidity,HourlyPrecipIn,Conditions,Clouds,dailyrainin,SoftwareType,DateUTC
2013-02-10 00:04:00,65.5,63.1,29.47,South,180,10.7,17.0,92,0.00,,,0.00,WUHU21623XXSP,2013-02-10 06:04:00,
2013-02-10 00:09:00,65.7,63.2,29.47,SE,135,7.8,10.7,92,0.00,,,0.00,WUHU21623XXSP,2013-02-10 06:09:00,
2013-02-10 00:14:00,65.8,63.2,29.46,South,180,9.4,10.7,92,0.00,,,0.00,WUHU21623XXSP,2013-02-10 06:14:00,
2013-02-10 00:19:00,65.8,63.4,29.46,South,180,6.0,16.6,92,0.00,,,0.00,WUHU21623XXSP,2013-02-10 06:19:00,
2013-02-10 00:24:00,65.8,63.1,29.46,SE,135,11.9,16.6,91,0.00,,,0.00,WUHU21623XXSP,2013-02-10 06:24:00,
2013-02-10 00:29:00,65.8,63.1,29.46,SE,135,6.3,13.4,91,0.00,,,0.00,WUHU21623XXSP,2013-02-10 06:29:00,
2013-02-10 00:34:00,65.8,63.1,29.46,SE,135,5.4,13.4,91,0.00,,,0.00,WUHU21623XXSP,2013-02-10 06:34:00,
2013-02-10 00:39:00,66.0,63.3,29.46,SSE,157,17.9,17.9,91,0.00,,,0.00,WUHU21623XXSP,2013-02-10 06:39:00,
2013-02-10 00:44:00,66.0,63.3,29.46,SSE,157,17.9,17.9,91,0.00,,,0.00,WUHU21623XXSP,2013-02-10 06:44:00,
2013-02-10 00:49:00,66.0,63.3,29.47,SE,135,5.6,17.9,91,0.00,,,0.00,WUHU21623XXSP,2013-02-10 06:49:00,
2013-02-10 00:54:00,66.0,63.0,29.47,South,180,6.7,13.0,90,0.00,,,0.00,WUHU21623XXSP,2013-02-10 06:54:00,
2013-02-10 00:59:00,66.0,63.0,29.48,SW,225,14.3,14.3,90,0.00,,,0.00,WUHU21623XXSP,2013-02-10 06:59:00,
2013-02-10 01:04:00,66.0,63.0,29.48,SW,225,9.4,14.3,90,0.00,,,0.00,WUHU21623XXSP,2013-02-10 07:04:00,
2013-02-10 01:09:00,66.0,63.0,29.48,South,180,8.1,14.3,90,0.00,,,0.00,WUHU21623XXSP,2013-02-10 07:09:00,
2013-02-10 01:14:00,66.0,63.0,29.48,SW,225,9.8,10.1,90,0.00,,,0.00,WUHU21623XXSP,2013-02-10 07:14:00,
2013-02-10 01:19:00,66.0,63.0,29.48,South,180,10.5,10.5,90,0.00,,,0.00,WUHU21623XXSP,2013-02-10 07:19:00,
2013-02-10 01:24:00,66.0,63.0,29.49,SSE,157,7.2,11.4,90,0.00,,,0.00,WUHU21623XXSP,2013-02-10 07:24:00,
2013-02-10 01:29:00,66.0,63.0,29.49,East,90,0.0,11.4,90,0.00,,,0.00,WUHU21623XXSP,2013-02-10 07:29:00,
2013-02-10 01:34:00,66.2,63.1,29.49,SSE,157,2.5,11.2,90,0.00,,,0.00,WUHU21623XXSP,2013-02-10 07:34:00,
2013-02-10 01:39:00,66.0,63.1,29.49,South,180,6.0,6.0,90,0.00,,,0.00,WUHU21623XXSP,2013-02-10 07:39:00,
2013-02-10 01:44:00,66.2,63.1,29.48,SW,225,9.6,11.9,90,0.00,,,0.00,WUHU21623XXSP,2013-02-10 07:44:00,
2013-02-10 01:49:00,66.2,63.1,29.47,SW,225,7.6,11.9,90,0.00,,,0.00,WUHU21623XXSP,2013-02-10 07:49:00,
2013-02-10 01:54:00,66.2,63.1,29.47,South,180,6.0,7.6,90,0.00,,,0.00,WUHU21623XXSP,2013-02-10 07:54:00,
2013-02-10 01:59:00,66.2,63.1,29.47,SW,225,4.3,6.0,89,0.00,,,0.00,WUHU21623XXSP,2013-02-10 07:59:00,
2013-02-10 02:04:00,66.2,62.8,29.46,SSW,202,10.7,10.7,89,0.00,,,0.00,WUHU21623XXSP,2013-02-10 08:04:00,
2013-02-10 02:09:00,66.2,62.8,29.45,South,180,15.7,15.7,89,0.00,,,0.00,WUHU21623XXSP,2013-02-10 08:09:00,
2013-02-10 02:14:00,66.2,62.8,29.45,WSW,247,7.2,15.7,89,0.00,,,0.00,WUHU21623XXSP,2013-02-10 08:14:00,
2013-02-10 02:19:00,66.2,62.8,29.46,WSW,247,7.4,9.2,89,0.00,,,0.00,WUHU21623XXSP,2013-02-10 08:19:00,
2013-02-10 02:24:00,66.2,62.8,29.48,WSW,247,7.4,7.4,89,0.00,,,0.00,WUHU21623XXSP,2013-02-10 08:24:00,
2013-02-10 02:29:00,66.2,62.8,29.48,SSW,202,7.6,15.7,89,0.00,,,0.00,WUHU21623XXSP,2013-02-10 08:29:00,
2013-02-10 02:34:00,66.0,62.6,29.49,SSW,202,6.3,15.7,89,0.00,,,0.00,WUHU21623XXSP,2013-02-10 08:34:00,
2013-02-10 02:39:00,66.0,62.6,29.48,SSW,202,5.8,8.7,89,0.00,,,0.00,WUHU21623XXSP,2013-02-10 08:39:00,
2013-02-10 02:44:00,66.0,62.6,29.47,SSW,202,9.6,9.6,89,0.00,,,0.00,WUHU21623XXSP,2013-02-10 08:44:00,
2013-02-10 02:49:00,65.8,62.5,29.47,SSW,202,1.8,9.6,89,0.02,,,0.02,WUHU21623XXSP,2013-02-10 08:49:00,
2013-02-10 02:54:00,65.8,62.5,29.46,NNW,337,14.1,14.1,89,0.02,,,0.02,WUHU21623XXSP,2013-02-10 08:54:00,
2013-02-10 02:59:00,65.8,62.5,29.45,WSW,247,0.0,14.1,90,0.02,,,0.02,WUHU21623XXSP,2013-02-10 08:59:00,
2013-02-10 03:04:00,65.7,62.7,29.44,NNW,337,14.1,14.1,90,0.02,,,0.02,WUHU21623XXSP,2013-02-10 09:04:00,
2013-02-10 03:09:00,65.7,62.7,29.46,NNW,337,14.1,14.1,90,0.06,,,0.06,WUHU21623XXSP,2013-02-10 09:09:00,
2013-02-10 03:14:00,65.7,62.9,29.43,NNW,337,14.1,14.1,91,0.39,,,0.35,WUHU21623XXSP,2013-02-10 09:14:00,
2013-02-10 03:19:00,65.1,62.2,29.40,NE,45,5.8,14.1,90,0.59,,,0.55,WUHU21623XXSP,2013-02-10 09:19:00,
2013-02-10 03:24:00,64.9,62.0,29.44,WSW,247,13.2,14.1,90,0.69,,,0.70,WUHU21623XXSP,2013-02-10 09:24:00,
2013-02-10 03:29:00,64.9,62.0,29.44,NNW,337,14.1,14.1,90,0.69,,,0.70,WUHU21623XXSP,2013-02-10 09:29:00,
2013-02-10 03:34:00,64.9,62.0,29.43,SSE,157,3.8,14.1,90,0.71,,,0.72,WUHU21623XXSP,2013-02-10 09:34:00,
2013-02-10 03:39:00,65.1,62.2,29.43,South,180,13.2,14.1,90,0.71,,,0.72,WUHU21623XXSP,2013-02-10 09:39:00,
2013-02-10 03:45:00,65.1,62.2,29.43,SSW,202,8.1,13.2,90,0.71,,,0.72,WUHU21623XXSP,2013-02-10 09:45:00,
2013-02-10 03:50:00,65.3,62.3,29.43,SSW,202,8.1,8.1,90,0.69,,,0.72,WUHU21623XXSP,2013-02-10 09:50:00,
2013-02-10 03:55:00,65.5,62.8,29.43,SSW,202,12.8,12.8,91,0.69,,,0.72,WUHU21623XXSP,2013-02-10 09:55:00,
2013-02-10 04:00:00,65.5,62.8,29.45,SSW,202,21.7,21.7,91,0.69,,,0.72,WUHU21623XXSP,2013-02-10 10:00:00,
2013-02-10 04:05:00,65.7,62.9,29.45,South,180,6.5,21.7,91,0.67,,,0.72,WUHU21623XXSP,2013-02-10 10:05:00,
2013-02-10 04:10:00,65.7,62.9,29.45,South,180,10.7,21.7,91,0.57,,,0.72,WUHU21623XXSP,2013-02-10 10:10:00,
2013-02-10 04:15:00,65.8,63.1,29.45,South,180,7.8,10.7,91,0.26,,,0.72,WUHU21623XXSP,2013-02-10 10:15:00,
2013-02-10 04:20:00,65.8,63.1,29.45,SSW,202,11.4,11.4,91,0.12,,,0.72,WUHU21623XXSP,2013-02-10 10:20:00,
2013-02-10 04:25:00,65.8,63.1,29.46,SW,225,4.3,11.4,91,0.02,,,0.72,WUHU21623XXSP,2013-02-10 10:25:00,
2013-02-10 04:30:00,65.7,62.9,29.48,WNW,292,10.3,10.3,91,0.00,,,0.72,WUHU21623XXSP,2013-02-10 10:30:00,
2013-02-10 04:35:00,64.6,60.7,29.47,WSW,247,10.1,13.9,87,0.00,,,0.72,WUHU21623XXSP,2013-02-10 10:35:00,
2013-02-10 04:40:00,63.7,60.0,29.49,NNW,337,13.6,13.9,86,0.00,,,0.72,WUHU21623XXSP,2013-02-10 10:40:00,
2013-02-10 04:45:00,63.0,58.4,29.50,West,270,6.0,13.6,85,0.00,,,0.72,WUHU21623XXSP,2013-02-10 10:45:00,
2013-02-10 04:50:00,61.7,56.8,29.51,WSW,247,3.4,13.6,84,0.02,,,0.74,WUHU21623XXSP,2013-02-10 10:50:00,
2013-02-10 04:55:00,61.0,55.8,29.50,WNW,292,12.8,13.6,83,0.06,,,0.76,WUHU21623XXSP,2013-02-10 10:55:00,
2013-02-10 05:00:00,60.4,55.3,29.51,WNW,292,9.2,13.6,83,0.06,,,0.78,WUHU21623XXSP,2013-02-10 11:00:00,
2013-02-10 05:05:00,59.4,53.9,29.51,WNW,292,8.5,15.0,82,0.08,,,0.80,WUHU21623XXSP,2013-02-10 11:05:00,
2013-02-10 05:10:00,58.8,53.7,29.50,WNW,292,0.0,15.0,83,0.08,,,0.80,WUHU21623XXSP,2013-02-10 11:10:00,
2013-02-10 05:15:00,58.6,53.5,29.52,West,270,2.0,7.6,83,0.10,,,0.82,WUHU21623XXSP,2013-02-10 11:15:00,
2013-02-10 05:20:00,58.3,53.1,29.50,WSW,247,1.6,7.6,83,0.10,,,0.82,WUHU21623XXSP,2013-02-10 11:20:00,
2013-02-10 05:25:00,58.3,53.1,29.51,SW,225,2.2,2.5,83,0.10,,,0.82,WUHU21623XXSP,2013-02-10 11:25:00,
2013-02-10 05:30:00,58.1,53.0,29.52,WSW,247,0.0,3.4,83,0.10,,,0.82,WUHU21623XXSP,2013-02-10 11:30:00,
2013-02-10 05:35:00,58.1,53.0,29.51,WSW,247,4.5,8.5,83,0.10,,,0.82,WUHU21623XXSP,2013-02-10 11:35:00,
2013-02-10 05:40:00,57.9,52.8,29.52,WSW,247,1.8,8.5,83,0.10,,,0.82,WUHU21623XXSP,2013-02-10 11:40:00,
2013-02-10 05:45:00,57.9,52.8,29.51,West,270,0.0,2.2,83,0.08,,,0.82,WUHU21623XXSP,2013-02-10 11:45:00,
2013-02-10 05:50:00,57.9,52.8,29.51,SW,225,0.0,2.2,83,0.06,,,0.82,WUHU21623XXSP,2013-02-10 11:50:00,
2013-02-10 05:55:00,57.9,52.8,29.51,WSW,247,1.1,1.1,83,0.04,,,0.82,WUHU21623XXSP,2013-02-10 11:55:00,
2013-02-10 06:00:00,57.7,52.6,29.52,South,180,1.6,3.1,83,0.04,,,0.82,WUHU21623XXSP,2013-02-10 12:00:00,
2013-02-10 06:05:00,57.6,52.4,29.54,WSW,247,1.1,3.1,83,0.02,,,0.82,WUHU21623XXSP,2013-02-10 12:05:00,
2013-02-10 06:10:00,57.4,52.2,29.54,West,270,0.0,4.3,83,0.00,,,0.82,WUHU21623XXSP,2013-02-10 12:10:00,
2013-02-10 06:15:00,57.4,52.2,29.54,West,270,0.0,4.3,83,0.00,,,0.82,WUHU21623XXSP,2013-02-10 12:15:00,
2013-02-10 06:20:00,57.4,52.2,29.54,WNW,292,1.6,1.6,83,0.00,,,0.82,WUHU21623XXSP,2013-02-10 12:20:00,
2013-02-10 06:25:00,57.4,52.2,29.53,NW,315,1.3,1.6,83,0.00,,,0.82,WUHU21623XXSP,2013-02-10 12:25:00,
2013-02-10 06:30:00,57.2,52.1,29.54,WSW,247,0.0,1.3,83,0.00,,,0.82,WUHU21623XXSP,2013-02-10 12:30:00,
2013-02-10 06:35:00,57.2,52.1,29.52,NW,315,1.6,1.6,83,0.00,,,0.82,WUHU21623XXSP,2013-02-10 12:35:00,
2013-02-10 06:40:00,57.0,51.9,29.53,South,180,0.0,1.6,83,0.00,,,0.82,WUHU21623XXSP,2013-02-10 12:40:00,
2013-02-10 06:45:00,57.0,52.2,29.54,West,270,2.0,2.0,84,0.00,,,0.82,WUHU21623XXSP,2013-02-10 12:45:00,
2013-02-10 06:50:00,57.0,51.9,29.54,WSW,247,0.9,2.0,83,0.00,,,0.82,WUHU21623XXSP,2013-02-10 12:50:00,
2013-02-10 06:55:00,56.8,51.7,29.54,West,270,0.0,3.1,83,0.00,,,0.82,WUHU21623XXSP,2013-02-10 12:55:00,
2013-02-10 07:00:00,56.8,51.7,29.54,West,270,0.7,3.1,83,0.00,,,0.82,WUHU21623XXSP,2013-02-10 13:00:00,
2013-02-10 07:05:00,56.8,51.7,29.54,West,270,1.8,1.8,83,0.00,,,0.82,WUHU21623XXSP,2013-02-10 13:05:00,
2013-02-10 07:10:00,56.7,51.5,29.54,West,270,2.5,2.5,83,0.00,,,0.82,WUHU21623XXSP,2013-02-10 13:10:00,
2013-02-10 07:15:00,56.5,51.3,29.55,WSW,247,1.6,2.5,83,0.00,,,0.82,WUHU21623XXSP,2013-02-10 13:15:00,
2013-02-10 07:20:00,56.3,51.2,29.54,WSW,247,1.1,1.6,83,0.00,,,0.82,WUHU21623XXSP,2013-02-10 13:20:00,
2013-02-10 07:25:00,56.3,51.2,29.54,WNW,292,1.6,1.6,83,0.00,,,0.82,WUHU21623XXSP,2013-02-10 13:25:00,
2013-02-10 07:30:00,56.1,51.0,29.55,NW,315,2.9,2.9,83,0.00,,,0.82,WUHU21623XXSP,2013-02-10 13:30:00,
2013-02-10 07:35:00,56.1,51.0,29.56,WSW,247,2.0,3.1,83,0.00,,,0.82,WUHU21623XXSP,2013-02-10 13:35:00,
2013-02-10 07:40:00,55.9,50.8,29.56,WSW,247,1.8,3.1,83,0.00,,,0.82,WUHU21623XXSP,2013-02-10 13:40:00,
2013-02-10 07:45:00,55.9,50.8,29.56,NW,315,2.2,2.2,83,0.00,,,0.82,WUHU21623XXSP,2013-02-10 13:45:00,
2013-02-10 07:50:00,55.9,50.8,29.56,NW,315,2.2,2.2,83,0.00,,,0.82,WUHU21623XXSP,2013-02-10 13:50:00,
2013-02-10 07:55:00,55.9,50.8,29.58,WSW,247,0.0,2.2,83,0.00,,,0.82,WUHU21623XXSP,2013-02-10 13:55:00,
2013-02-10 08:00:00,55.9,50.5,29.58,SW,225,0.0,3.8,82,0.00,,,0.82,WUHU21623XXSP,2013-02-10 14:00:00,
2013-02-10 08:05:00,55.9,50.5,29.58,West,270,3.6,4.0,82,0.00,,,0.82,WUHU21623XXSP,2013-02-10 14:05:00,
2013-02-10 08:10:00,55.9,50.5,29.58,WSW,247,5.1,5.1,82,0.00,,,0.82,WUHU21623XXSP,2013-02-10 14:10:00,
2013-02-10 08:15:00,55.9,49.8,29.57,NNW,337,1.8,5.1,80,0.00,,,0.82,WUHU21623XXSP,2013-02-10 14:15:00,
2013-02-10 08:20:00,55.9,49.8,29.57,NW,315,2.0,3.8,80,0.00,,,0.82,WUHU21623XXSP,2013-02-10 14:20:00,
2013-02-10 08:25:00,55.9,49.5,29.58,NW,315,5.1,5.1,79,0.00,,,0.82,WUHU21623XXSP,2013-02-10 14:25:00,
2013-02-10 08:30:00,55.9,49.1,29.59,WSW,247,1.6,5.1,78,0.00,,,0.82,WUHU21623XXSP,2013-02-10 14:30:00,
2013-02-10 08:35:00,55.9,49.1,29.60,WNW,292,4.7,4.7,78,0.00,,,0.82,WUHU21623XXSP,2013-02-10 14:35:00,
2013-02-10 08:40:00,56.1,49.3,29.60,NW,315,4.5,4.7,78,0.00,,,0.82,WUHU21623XXSP,2013-02-10 14:40:00,
2013-02-10 08:45:00,56.1,49.3,29.60,WNW,292,5.1,5.1,77,0.00,,,0.82,WUHU21623XXSP,2013-02-10 14:45:00,
2013-02-10 08:50:00,56.1,48.9,29.60,WNW,292,0.0,5.1,77,0.00,,,0.82,WUHU21623XXSP,2013-02-10 14:50:00,
2013-02-10 08:55:00,56.3,48.8,29.61,NW,315,1.6,3.6,76,0.00,,,0.82,WUHU21623XXSP,2013-02-10 14:55:00,
2013-02-10 09:00:00,56.5,48.6,29.60,NW,315,6.9,6.9,75,0.00,,,0.82,WUHU21623XXSP,2013-02-10 15:00:00,
2013-02-10 09:05:00,56.5,47.9,29.61,West,270,0.0,6.9,73,0.00,,,0.82,WUHU21623XXSP,2013-02-10 15:05:00,
2013-02-10 09:10:00,56.5,47.9,29.62,WNW,292,0.0,6.9,73,0.00,,,0.82,WUHU21623XXSP,2013-02-10 15:10:00,
2013-02-10 09:15:00,56.5,47.9,29.62,WNW,292,3.8,5.8,73,0.00,,,0.82,WUHU21623XXSP,2013-02-10 15:15:00,
2013-02-10 09:20:00,56.5,47.5,29.62,WNW,292,1.6,5.6,72,0.00,,,0.82,WUHU21623XXSP,2013-02-10 15:20:00,
2013-02-10 09:25:00,56.5,47.5,29.62,West,270,2.0,5.6,72,0.00,,,0.82,WUHU21623XXSP,2013-02-10 15:25:00,
2013-02-10 09:30:00,56.7,47.0,29.61,NW,315,8.5,8.5,70,0.00,,,0.82,WUHU21623XXSP,2013-02-10 15:30:00,
2013-02-10 09:35:00,56.5,46.4,29.60,North,0,9.8,9.8,69,0.00,,,0.82,WUHU21623XXSP,2013-02-10 15:35:00,
2013-02-10 09:40:00,56.7,46.6,29.61,North,0,4.0,9.8,69,0.00,,,0.82,WUHU21623XXSP,2013-02-10 15:40:00,
2013-02-10 09:45:00,56.8,46.7,29.62,West,270,3.8,9.8,69,0.00,,,0.82,WUHU21623XXSP,2013-02-10 15:45:00,
2013-02-10 09:50:00,56.8,46.3,29.62,WNW,292,2.0,3.8,68,0.00,,,0.82,WUHU21623XXSP,2013-02-10 15:50:00,
2013-02-10 09:55:00,57.0,46.5,29.63,WNW,292,4.7,4.7,68,0.00,,,0.82,WUHU21623XXSP,2013-02-10 15:55:00,
2013-02-10 10:00:00,57.0,46.9,29.63,NNW,337,2.7,4.7,68,0.00,,,0.82,WUHU21623XXSP,2013-02-10 16:00:00,
2013-02-10 10:05:00,57.4,46.5,29.63,SSW,202,0.0,4.7,67,0.00,,,0.82,WUHU21623XXSP,2013-02-10 16:05:00,
2013-02-10 10:10:00,57.4,46.1,29.64,NW,315,1.8,2.7,66,0.00,,,0.82,WUHU21623XXSP,2013-02-10 16:10:00,
2013-02-10 10:15:00,57.4,44.9,29.63,NNW,337,5.4,7.4,63,0.00,,,0.82,WUHU21623XXSP,2013-02-10 16:15:00,
2013-02-10 10:20:00,57.4,44.9,29.62,NW,315,1.8,8.3,63,0.00,,,0.82,WUHU21623XXSP,2013-02-10 16:20:00,
2013-02-10 10:25:00,57.6,44.6,29.62,NW,315,3.1,8.3,62,0.00,,,0.82,WUHU21623XXSP,2013-02-10 16:25:00,
2013-02-10 10:30:00,57.6,44.2,29.63,NW,315,5.4,6.3,61,0.00,,,0.82,WUHU21623XXSP,2013-02-10 16:30:00,
2013-02-10 10:35:00,57.7,44.0,29.63,NW,315,8.9,8.9,60,0.00,,,0.82,WUHU21623XXSP,2013-02-10 16:35:00,
2013-02-10 10:40:00,57.7,44.0,29.63,WNW,292,11.6,11.6,60,0.00,,,0.82,WUHU21623XXSP,2013-02-10 16:40:00,
2013-02-10 10:45:00,57.9,43.7,29.64,NNW,337,4.7,11.6,58,0.00,,,0.82,WUHU21623XXSP,2013-02-10 16:45:00,
2013-02-10 10:50:00,58.1,42.9,29.64,NNW,337,2.0,6.9,57,0.00,,,0.82,WUHU21623XXSP,2013-02-10 16:50:00,
2013-02-10 10:55:00,58.3,42.6,29.63,WNW,292,2.0,6.9,56,0.00,,,0.82,WUHU21623XXSP,2013-02-10 16:55:00,
2013-02-10 11:00:00,58.3,42.6,29.63,WNW,292,2.0,6.9,56,0.00,,,0.82,WUHU21623XXSP,2013-02-10 17:00:00,
2013-02-10 11:05:00,58.3,42.6,29.63,WNW,292,2.0,2.0,56,0.00,,,0.82,WUHU21623XXSP,2013-02-10 17:05:00,
2013-02-10 11:10:00,58.3,42.6,29.63,WNW,292,2.0,2.0,56,0.00,,,0.82,WUHU21623XXSP,2013-02-10 17:10:00,
2013-02-10 11:15:00,58.8,43.1,29.64,WNW,292,4.7,4.7,56,0.00,,,0.82,WUHU21623XXSP,2013-02-10 17:15:00,
2013-02-10 11:20:00,58.8,43.1,29.63,WSW,247,5.6,5.6,54,0.00,,,0.82,WUHU21623XXSP,2013-02-10 17:20:00,
2013-02-10 11:25:00,59.0,41.9,29.62,West,270,4.9,6.0,53,0.00,,,0.82,WUHU21623XXSP,2013-02-10 17:25:00,
2013-02-10 11:31:00,59.4,41.7,29.62,NW,315,8.3,8.3,52,0.00,,,0.82,WUHU21623XXSP,2013-02-10 17:31:00,
2013-02-10 11:36:00,59.5,41.4,29.63,West,270,2.7,8.3,51,0.00,,,0.82,WUHU21623XXSP,2013-02-10 17:36:00,
2013-02-10 11:41:00,59.7,41.6,29.64,West,270,4.7,6.3,51,0.00,,,0.82,WUHU21623XXSP,2013-02-10 17:41:00,
2013-02-10 11:46:00,59.9,41.7,29.64,WNW,292,6.9,6.9,49,0.00,,,0.82,WUHU21623XXSP,2013-02-10 17:46:00,
2013-02-10 11:51:00,60.1,40.9,29.63,WNW,292,6.9,6.9,49,0.00,,,0.82,WUHU21623XXSP,2013-02-10 17:51:00,
2013-02-10 11:56:00,60.1,40.9,29.63,NW,315,7.4,7.4,49,0.00,,,0.82,WUHU21623XXSP,2013-02-10 17:56:00,
2013-02-10 12:01:00,60.1,40.3,29.62,NW,315,7.2,7.4,48,0.00,,,0.82,WUHU21623XXSP,2013-02-10 18:01:00,
2013-02-10 12:06:00,60.1,40.3,29.62,WNW,292,4.7,7.2,48,0.00,,,0.82,WUHU21623XXSP,2013-02-10 18:06:00,
2013-02-10 12:11:00,60.1,40.0,29.62,West,270,7.2,7.2,46,0.00,,,0.82,WUHU21623XXSP,2013-02-10 18:11:00,
2013-02-10 12:16:00,60.1,39.1,29.61,NW,315,1.6,7.2,46,0.00,,,0.82,WUHU21623XXSP,2013-02-10 18:16:00,
2013-02-10 12:21:00,60.4,40.0,29.61,NW,315,3.1,3.1,47,0.00,,,0.82,WUHU21623XXSP,2013-02-10 18:21:00,
2013-02-10 12:26:00,59.0,40.6,29.62,WNW,292,3.6,3.6,48,0.00,,,0.82,WUHU21623XXSP,2013-02-10 18:26:00,
2013-02-10 12:31:00,60.6,40.2,29.61,West,270,0.0,3.6,47,0.00,,,0.82,WUHU21623XXSP,2013-02-10 18:31:00,
2013-02-10 12:36:00,60.8,39.8,29.61,NW,315,6.0,6.0,46,0.00,,,0.82,WUHU21623XXSP,2013-02-10 18:36:00,
2013-02-10 12:41:00,61.0,39.9,29.61,NNW,337,2.0,6.0,46,0.00,,,0.82,WUHU21623XXSP,2013-02-10 18:41:00,
2013-02-10 12:46:00,61.0,39.9,29.61,NNW,337,2.0,6.0,46,0.00,,,0.82,WUHU21623XXSP,2013-02-10 18:46:00,
2013-02-10 12:51:00,61.0,39.9,29.61,NNW,337,2.0,2.0,46,0.00,,,0.82,WUHU21623XXSP,2013-02-10 18:51:00,
2013-02-10 12:56:00,61.2,38.4,29.60,NW,315,6.7,8.3,43,0.00,,,0.82,WUHU21623XXSP,2013-02-10 18:56:00,
2013-02-10 13:01:00,61.2,38.4,29.60,NNW,337,6.7,8.3,43,0.00,,,0.82,WUHU21623XXSP,2013-02-10 19:01:00,
2013-02-10 13:06:00,61.3,38.5,29.60,NW,315,5.4,6.7,43,0.00,,,0.82,WUHU21623XXSP,2013-02-10 19:06:00,
2013-02-10 13:11:00,61.5,38.7,29.60,West,270,3.4,5.4,43,0.00,,,0.82,WUHU21623XXSP,2013-02-10 19:11:00,
2013-02-10 13:16:00,61.7,38.9,29.60,West,270,5.1,5.4,43,0.00,,,0.82,WUHU21623XXSP,2013-02-10 19:16:00,
2013-02-10 13:21:00,61.9,38.4,29.59,West,270,4.0,5.1,42,0.00,,,0.82,WUHU21623XXSP,2013-02-10 19:21:00,
2013-02-10 13:26:00,61.9,38.4,29.59,NNW,337,5.8,5.8,42,0.00,,,0.82,WUHU21623XXSP,2013-02-10 19:26:00,
2013-02-10 13:31:00,61.9,38.4,29.58,West,270,4.9,5.8,41,0.00,,,0.82,WUHU21623XXSP,2013-02-10 19:31:00,
2013-02-10 13:36:00,61.9,38.4,29.59,NW,315,4.7,4.9,42,0.00,,,0.82,WUHU21623XXSP,2013-02-10 19:36:00,
2013-02-10 13:41:00,61.9,38.4,29.59,NW,315,1.1,4.9,41,0.00,,,0.82,WUHU21623XXSP,2013-02-10 19:41:00,
2013-02-10 13:46:00,61.9,39.0,29.58,NNE,22,1.8,1.8,43,0.00,,,0.82,WUHU21623XXSP,2013-02-10 19:46:00,
2013-02-10 13:51:00,62.1,38.6,29.59,NW,315,4.7,5.4,42,0.00,,,0.82,WUHU21623XXSP,2013-02-10 19:51:00,
2013-02-10 13:56:00,62.2,38.8,29.59,South,180,0.0,5.4,42,0.00,,,0.82,WUHU21623XXSP,2013-02-10 19:56:00,
2013-02-10 14:01:00,62.4,38.9,29.58,WNW,292,1.8,4.9,42,0.00,,,0.82,WUHU21623XXSP,2013-02-10 20:01:00,
2013-02-10 14:06:00,62.6,38.9,29.58,WSW,247,0.0,4.9,42,0.00,,,0.82,WUHU21623XXSP,2013-02-10 20:06:00,
2013-02-10 14:11:00,62.8,39.3,29.59,NW,315,3.6,3.6,42,0.00,,,0.82,WUHU21623XXSP,2013-02-10 20:11:00,
2013-02-10 14:16:00,63.0,39.4,29.58,West,270,0.0,3.6,42,0.00,,,0.82,WUHU21623XXSP,2013-02-10 20:16:00,
2013-02-10 14:21:00,63.1,39.6,29.58,WNW,292,1.1,3.1,42,0.00,,,0.82,WUHU21623XXSP,2013-02-10 20:21:00,
2013-02-10 14:26:00,63.3,39.7,29.57,WNW,292,1.1,3.1,42,0.00,,,0.82,WUHU21623XXSP,2013-02-10 20:26:00,
2013-02-10 14:31:00,63.3,39.2,29.58,WSW,247,2.5,2.5,41,0.00,,,0.82,WUHU21623XXSP,2013-02-10 20:31:00,
2013-02-10 14:36:00,63.5,39.2,29.58,WNW,292,2.0,2.5,41,0.00,,,0.82,WUHU21623XXSP,2013-02-10 20:36:00,
2013-02-10 14:41:00,63.5,39.3,29.57,West,270,3.6,3.6,41,0.00,,,0.82,WUHU21623XXSP,2013-02-10 20:41:00,
2013-02-10 14:46:00,63.5,39.9,29.57,WNW,292,3.1,3.6,42,0.00,,,0.82,WUHU21623XXSP,2013-02-10 20:46:00,
2013-02-10 14:51:00,63.7,40.1,29.57,West,270,3.1,3.6,42,0.00,,,0.82,WUHU21623XXSP,2013-02-10 20:51:00,
2013-02-10 14:56:00,63.7,39.5,29.58,WNW,292,7.6,7.6,40,0.00,,,0.82,WUHU21623XXSP,2013-02-10 20:56:00,
2013-02-10 15:01:00,64.0,39.2,29.58,WNW,292,7.6,7.6,40,0.00,,,0.82,WUHU21623XXSP,2013-02-10 21:01:00,
2013-02-10 15:06:00,64.0,39.2,29.58,NW,315,2.9,7.6,40,0.00,,,0.82,WUHU21623XXSP,2013-02-10 21:06:00,
2013-02-10 15:11:00,64.0,38.5,29.58,NW,315,3.8,7.6,39,0.00,,,0.82,WUHU21623XXSP,2013-02-10 21:11:00,
2013-02-10 15:16:00,64.2,38.7,29.57,NW,315,3.6,3.8,39,0.00,,,0.82,WUHU21623XXSP,2013-02-10 21:16:00,
2013-02-10 15:21:00,64.2,38.0,29.57,North,0,0.9,3.6,38,0.00,,,0.82,WUHU21623XXSP,2013-02-10 21:21:00,
2013-02-10 15:26:00,64.6,38.1,29.57,North,0,0.9,3.1,38,0.00,,,0.82,WUHU21623XXSP,2013-02-10 21:26:00,
2013-02-10 15:31:00,64.6,37.6,29.57,NNW,337,2.5,2.5,37,0.00,,,0.82,WUHU21623XXSP,2013-02-10 21:31:00,
2013-02-10 15:36:00,64.6,38.3,29.57,North,0,2.2,2.5,38,0.00,,,0.82,WUHU21623XXSP,2013-02-10 21:36:00,
2013-02-10 15:41:00,64.6,39.0,29.58,NNE,22,3.4,6.9,39,0.00,,,0.82,WUHU21623XXSP,2013-02-10 21:41:00,
2013-02-10 15:46:00,64.6,38.3,29.57,NNW,337,4.9,6.9,38,0.00,,,0.82,WUHU21623XXSP,2013-02-10 21:46:00,
2013-02-10 15:51:00,64.8,38.4,29.57,NNW,337,0.9,4.9,38,0.00,,,0.82,WUHU21623XXSP,2013-02-10 21:51:00,
2013-02-10 15:56:00,64.8,38.4,29.57,NNW,337,0.0,4.0,38,0.00,,,0.82,WUHU21623XXSP,2013-02-10 21:56:00,
2013-02-10 16:01:00,64.8,38.4,29.58,West,270,0.0,3.4,38,0.00,,,0.82,WUHU21623XXSP,2013-02-10 22:01:00,
2013-02-10 16:06:00,64.6,38.3,29.57,North,0,0.9,2.5,38,0.00,,,0.82,WUHU21623XXSP,2013-02-10 22:06:00,
2013-02-10 16:11:00,64.8,37.7,29.57,NNW,337,1.6,2.9,37,0.00,,,0.82,WUHU21623XXSP,2013-02-10 22:11:00,
2013-02-10 16:16:00,64.9,37.9,29.57,NNW,337,0.0,2.9,37,0.00,,,0.82,WUHU21623XXSP,2013-02-10 22:16:00,
2013-02-10 16:21:00,64.9,37.9,29.58,North,0,3.4,3.4,37,0.00,,,0.82,WUHU21623XXSP,2013-02-10 22:21:00,
2013-02-10 16:26:00,64.9,37.9,29.57,North,0,0.0,3.4,37,0.00,,,0.82,WUHU21623XXSP,2013-02-10 22:26:00,
2013-02-10 16:31:00,64.9,38.6,29.58,North,0,0.0,3.4,38,0.00,,,0.82,WUHU21623XXSP,2013-02-10 22:31:00,
2013-02-10 16:37:00,64.9,38.6,29.58,NNW,337,0.0,3.4,38,0.00,,,0.82,WUHU21623XXSP,2013-02-10 22:37:00,
2013-02-10 16:42:00,65.1,38.8,29.58,North,0,2.0,2.0,38,0.00,,,0.82,WUHU21623XXSP,2013-02-10 22:42:00,
2013-02-10 16:47:00,65.1,38.8,29.58,NNW,337,2.0,3.4,38,0.00,,,0.82,WUHU21623XXSP,2013-02-10 22:47:00,
2013-02-10 16:52:00,64.9,37.9,29.58,North,0,1.6,3.4,37,0.00,,,0.82,WUHU21623XXSP,2013-02-10 22:52:00,
2013-02-10 16:57:00,65.1,38.0,29.59,NNE,22,3.6,3.6,37,0.00,,,0.82,WUHU21623XXSP,2013-02-10 22:57:00,
2013-02-10 17:06:00,64.9,37.2,29.59,NNW,337,1.6,3.6,36,0.00,,,0.82,WUHU21623XXSP,2013-02-10 23:06:00,
2013-02-10 17:11:00,64.8,37.7,29.59,NE,45,2.7,3.6,37,0.00,,,0.82,WUHU21623XXSP,2013-02-10 23:11:00,
2013-02-10 17:16:00,64.8,37.7,29.59,NNW,337,1.6,4.3,37,0.00,,,0.82,WUHU21623XXSP,2013-02-10 23:16:00,
2013-02-10 17:21:00,64.6,38.3,29.59,North,0,0.0,4.3,38,0.00,,,0.82,WUHU21623XXSP,2013-02-10 23:21:00,
2013-02-10 17:26:00,64.6,38.3,29.59,NE,45,0.0,2.2,38,0.00,,,0.82,WUHU21623XXSP,2013-02-10 23:26:00,
2013-02-10 17:33:00,64.6,39.0,29.60,NNE,22,0.0,0.0,39,0.00,,,0.82,WUHU21623XXSP,2013-02-10 23:33:00,
2013-02-10 17:38:00,64.2,39.4,29.60,NNE,22,0.0,0.0,40,0.00,,,0.82,WUHU21623XXSP,2013-02-10 23:38:00,
2013-02-10 17:43:00,64.2,39.4,29.60,NNE,22,0.0,0.0,40,0.00,,,0.82,WUHU21623XXSP,2013-02-10 23:43:00,
2013-02-10 17:48:00,64.0,39.4,29.60,NNE,22,0.0,0.0,43,0.00,,,0.82,WUHU21623XXSP,2013-02-10 23:48:00,
2013-02-10 17:53:00,63.7,41.2,29.60,NNE,22,0.0,0.0,44,0.00,,,0.82,WUHU21623XXSP,2013-02-10 23:53:00,
2013-02-10 17:58:00,63.3,42.6,29.61,NE,45,0.0,0.0,47,0.00,,,0.82,WUHU21623XXSP,2013-02-10 23:58:00,
2013-02-10 18:03:00,63.1,42.6,29.61,NE,45,0.0,0.0,47,0.00,,,0.82,WUHU21623XXSP,2013-02-11 00:03:00,
2013-02-10 18:08:00,63.0,42.9,29.61,NE,45,0.0,0.0,48,0.00,,,0.82,WUHU21623XXSP,2013-02-11 00:08:00,
2013-02-10 18:13:00,62.8,43.3,29.62,NE,45,0.0,0.0,49,0.00,,,0.82,WUHU21623XXSP,2013-02-11 00:13:00,
2013-02-10 18:18:00,62.4,43.5,29.61,NW,315,0.0,0.0,50,0.00,,,0.82,WUHU21623XXSP,2013-02-11 00:18:00,
2013-02-10 18:23:00,62.1,43.7,29.61,North,0,2.2,2.2,51,0.00,,,0.82,WUHU21623XXSP,2013-02-11 00:23:00,
2013-02-10 18:28:00,61.7,43.9,29.62,NNE,22,2.7,2.7,52,0.00,,,0.82,WUHU21623XXSP,2013-02-11 00:28:00,
2013-02-10 18:33:00,61.5,43.7,29.62,North,0,2.5,2.7,52,0.00,,,0.82,WUHU21623XXSP,2013-02-11 00:33:00,
2013-02-10 18:38:00,61.2,42.9,29.62,NNE,22,1.8,2.9,51,0.00,,,0.82,WUHU21623XXSP,2013-02-11 00:38:00,
2013-02-10 18:43:00,61.0,42.7,29.62,NNE,22,0.0,2.9,51,0.00,,,0.82,WUHU21623XXSP,2013-02-11 00:43:00,
2013-02-10 18:48:00,60.8,43.1,29.62,NNE,22,0.0,0.0,52,0.00,,,0.82,WUHU21623XXSP,2013-02-11 00:48:00,
2013-02-10 18:53:00,60.4,43.7,29.61,NNW,337,0.0,0.0,54,0.00,,,0.82,WUHU21623XXSP,2013-02-11 00:53:00,
2013-02-10 18:58:00,60.3,43.5,29.62,West,270,0.0,0.0,54,0.00,,,0.82,WUHU21623XXSP,2013-02-11 00:58:00,
2013-02-10 19:03:00,60.1,43.8,29.62,SW,225,0.0,0.0,55,0.00,,,0.82,WUHU21623XXSP,2013-02-11 01:03:00,
2013-02-10 19:12:00,59.5,44.3,29.62,SSW,202,1.3,1.3,57,0.00,,,0.82,WUHU21623XXSP,2013-02-11 01:12:00,
2013-02-10 19:17:00,59.2,44.4,29.63,SW,225,0.0,1.3,58,0.00,,,0.82,WUHU21623XXSP,2013-02-11 01:17:00,
2013-02-10 19:22:00,58.8,44.0,29.63,WSW,247,0.0,0.0,58,0.00,,,0.82,WUHU21623XXSP,2013-02-11 01:22:00,
2013-02-10 19:27:00,58.8,44.5,29.63,SW,225,0.0,0.0,59,0.00,,,0.82,WUHU21623XXSP,2013-02-11 01:27:00,
2013-02-10 19:32:00,58.6,44.8,29.63,West,270,0.0,0.0,60,0.00,,,0.82,WUHU21623XXSP,2013-02-11 01:32:00,
2013-02-10 19:37:00,58.5,44.7,29.63,WNW,292,0.0,0.0,60,0.00,,,0.82,WUHU21623XXSP,2013-02-11 01:37:00,
2013-02-10 19:42:00,58.3,44.9,29.63,WSW,247,0.0,0.0,61,0.00,,,0.82,WUHU21623XXSP,2013-02-11 01:42:00,
2013-02-10 19:47:00,58.1,45.1,29.63,SW,225,0.0,2.5,62,0.00,,,0.82,WUHU21623XXSP,2013-02-11 01:47:00,
2013-02-10 19:52:00,57.9,45.0,29.63,West,270,0.0,2.5,62,0.00,,,0.82,WUHU21623XXSP,2013-02-11 01:52:00,
2013-02-10 19:57:00,57.9,45.4,29.63,West,270,0.0,0.9,63,0.00,,,0.82,WUHU21623XXSP,2013-02-11 01:57:00,
2013-02-10 20:02:00,57.7,45.2,29.63,SW,225,0.0,0.0,63,0.00,,,0.82,WUHU21623XXSP,2013-02-11 02:02:00,
2013-02-10 20:07:00,57.7,45.6,29.64,SW,225,0.0,1.3,64,0.00,,,0.82,WUHU21623XXSP,2013-02-11 02:07:00,
2013-02-10 20:12:00,57.6,45.2,29.63,WSW,247,0.0,1.3,63,0.00,,,0.82,WUHU21623XXSP,2013-02-11 02:12:00,
2013-02-10 20:17:00,57.4,45.3,29.64,South,180,0.0,0.0,64,0.00,,,0.82,WUHU21623XXSP,2013-02-11 02:17:00,
2013-02-10 20:22:00,57.4,45.3,29.64,WNW,292,1.1,1.1,64,0.00,,,0.82,WUHU21623XXSP,2013-02-11 02:22:00,
2013-02-10 20:27:00,57.0,44.9,29.64,West,270,0.0,1.1,64,0.00,,,0.82,WUHU21623XXSP,2013-02-11 02:27:00,
2013-02-10 20:32:00,57.0,44.9,29.63,WNW,292,0.0,0.0,64,0.00,,,0.82,WUHU21623XXSP,2013-02-11 02:32:00,
2013-02-10 20:37:00,57.0,45.3,29.64,SSW,202,0.0,1.1,65,0.00,,,0.82,WUHU21623XXSP,2013-02-11 02:37:00,
2013-02-10 20:42:00,57.0,45.3,29.64,SSW,202,0.0,1.1,65,0.00,,,0.82,WUHU21623XXSP,2013-02-11 02:42:00,
2013-02-10 20:47:00,56.8,45.6,29.64,West,270,0.0,0.0,66,0.00,,,0.82,WUHU21623XXSP,2013-02-11 02:47:00,
2013-02-10 20:52:00,56.8,45.6,29.65,SW,225,1.1,1.3,66,0.00,,,0.82,WUHU21623XXSP,2013-02-11 02:52:00,
2013-02-10 20:57:00,56.8,45.6,29.65,WSW,247,0.0,1.3,66,0.00,,,0.82,WUHU21623XXSP,2013-02-11 02:57:00,
2013-02-10 21:02:00,56.7,45.4,29.64,NW,315,0.0,1.3,66,0.00,,,0.82,WUHU21623XXSP,2013-02-11 03:02:00,
2013-02-10 21:07:00,56.5,45.2,29.65,WSW,247,0.0,0.0,66,0.00,,,0.82,WUHU21623XXSP,2013-02-11 03:07:00,
2013-02-10 21:12:00,56.5,45.6,29.65,WSW,247,0.0,0.0,67,0.00,,,0.82,WUHU21623XXSP,2013-02-11 03:12:00,
2013-02-10 21:17:00,56.5,45.6,29.64,NW,315,0.0,0.0,67,0.00,,,0.82,WUHU21623XXSP,2013-02-11 03:17:00,
2013-02-10 21:22:00,56.5,45.6,29.65,WNW,292,1.3,2.0,67,0.00,,,0.82,WUHU21623XXSP,2013-02-11 03:22:00,
2013-02-10 21:27:00,56.5,45.6,29.64,North,0,0.0,2.0,67,0.00,,,0.82,WUHU21623XXSP,2013-02-11 03:27:00,
2013-02-10 21:32:00,56.5,45.6,29.65,SSE,157,0.0,2.2,67,0.00,,,0.82,WUHU21623XXSP,2013-02-11 03:32:00,
2013-02-10 21:37:00,56.5,45.6,29.64,ESE,112,0.0,2.2,67,0.00,,,0.82,WUHU21623XXSP,2013-02-11 03:37:00,
2013-02-10 21:42:00,56.5,45.6,29.63,NNW,337,2.2,2.2,67,0.00,,,0.82,WUHU21623XXSP,2013-02-11 03:42:00,
2013-02-10 21:47:00,56.5,45.6,29.65,SSE,157,0.0,2.2,67,0.00,,,0.82,WUHU21623XXSP,2013-02-11 03:47:00,
2013-02-10 21:52:00,56.5,45.6,29.65,South,180,2.9,2.9,67,0.00,,,0.82,WUHU21623XXSP,2013-02-11 03:52:00,
2013-02-10 21:57:00,56.5,45.6,29.65,North,0,1.6,2.9,67,0.00,,,0.82,WUHU21623XXSP,2013-02-11 03:57:00,
2013-02-10 22:02:00,56.3,45.4,29.64,NNW,337,4.9,4.9,66,0.00,,,0.82,WUHU21623XXSP,2013-02-11 04:02:00,
2013-02-10 22:07:00,56.1,44.9,29.65,SE,135,0.0,4.9,66,0.00,,,0.82,WUHU21623XXSP,2013-02-11 04:07:00,
2013-02-10 22:12:00,56.3,45.0,29.67,SSE,157,1.3,4.9,66,0.00,,,0.82,WUHU21623XXSP,2013-02-11 04:12:00,
2013-02-10 22:17:00,56.3,44.6,29.67,SW,225,3.1,3.1,65,0.00,,,0.82,WUHU21623XXSP,2013-02-11 04:17:00,
2013-02-10 22:22:00,56.5,44.8,29.68,SSW,202,3.6,3.6,65,0.00,,,0.82,WUHU21623XXSP,2013-02-11 04:22:00,
2013-02-10 22:27:00,56.5,44.8,29.68,West,270,0.0,3.6,64,0.00,,,0.82,WUHU21623XXSP,2013-02-11 04:27:00,
2013-02-10 22:32:00,56.5,44.4,29.68,WSW,247,0.0,2.2,64,0.00,,,0.82,WUHU21623XXSP,2013-02-11 04:32:00,
2013-02-10 22:37:00,56.5,44.4,29.69,SSE,157,1.6,1.6,64,0.00,,,0.82,WUHU21623XXSP,2013-02-11 04:37:00,
2013-02-10 22:42:00,56.5,44.4,29.69,WSW,247,0.0,1.6,64,0.00,,,0.82,WUHU21623XXSP,2013-02-11 04:42:00,
2013-02-10 22:47:00,56.5,44.4,29.69,West,270,0.0,1.1,64,0.00,,,0.82,WUHU21623XXSP,2013-02-11 04:47:00,
2013-02-10 22:52:00,56.3,44.2,29.69,WSW,247,0.0,0.0,64,0.00,,,0.82,WUHU21623XXSP,2013-02-11 04:52:00,
2013-02-10 22:57:00,56.3,43.8,29.68,NW,315,0.0,0.0,63,0.00,,,0.82,WUHU21623XXSP,2013-02-11 04:57:00,
2013-02-10 23:02:00,56.3,43.8,29.69,North,0,0.0,0.0,63,0.00,,,0.82,WUHU21623XXSP,2013-02-11 05:02:00,
2013-02-10 23:07:00,56.3,44.2,29.70,North,0,0.0,0.0,64,0.00,,,0.82,WUHU21623XXSP,2013-02-11 05:07:00,
2013-02-10 23:12:00,56.1,44.1,29.69,NNW,337,0.0,0.0,64,0.00,,,0.82,WUHU21623XXSP,2013-02-11 05:12:00,
2013-02-10 23:17:00,56.1,44.5,29.69,NNW,337,0.9,0.9,65,0.00,,,0.82,WUHU21623XXSP,2013-02-11 05:17:00,
2013-02-10 23:22:00,56.1,44.5,29.68,NNW,337,0.9,0.9,65,0.00,,,0.82,WUHU21623XXSP,2013-02-11 05:22:00,
2013-02-10 23:27:00,56.1,44.5,29.68,ESE,112,0.0,0.9,65,0.00,,,0.82,WUHU21623XXSP,2013-02-11 05:27:00,
2013-02-10 23:32:00,55.9,44.3,29.70,SSW,202,0.0,0.0,65,0.00,,,0.82,WUHU21623XXSP,2013-02-11 05:32:00,
2013-02-10 23:37:00,55.9,44.3,29.70,SSW,202,0.0,0.0,66,0.00,,,0.82,WUHU21623XXSP,2013-02-11 05:37:00,
2013-02-10 23:42:00,55.8,44.5,29.70,WSW,247,0.0,0.0,66,0.00,,,0.82,WUHU21623XXSP,2013-02-11 05:42:00,
2013-02-10 23:47:00,55.8,44.5,29.71,WSW,247,0.0,0.0,66,0.00,,,0.82,WUHU21623XXSP,2013-02-11 05:47:00,
2013-02-10 23:52:00,55.6,44.4,29.71,West,270,0.0,0.0,66,0.00,,,0.82,WUHU21623XXSP,2013-02-11 05:52:00,
2013-02-10 23:57:00,55.6,44.4,29.70,SSW,202,0.0,0.0,66,0.00,,,0.82,WUHU21623XXSP,2013-02-11 05:57:00,